Time;durP1;ratioP1;P1;durP2;ratioP2;P2;SDS_P1;SDS_P2;PMS_P1;PMS_P2;Temp;Humidity;BMP_temperature;BMP_pressure;BME280_temperature;BME280_humidity;BME280_pressure;Samples;Min_cycle;Max_cycle;Signal;HPM_P1;HPM_P2
2022/12/21 00:00:09;;;;;;;40.63;28.80;;;;;;;0.96;80.89;100799.94;5072070;28;20246;-56
2022/12/21 00:02:39;;;;;;;41.33;27.17;;;;;;;0.96;80.16;100784.78;5071848;28;20545;-55
2022/12/21 00:05:06;;;;;;;41.30;28.63;;;;;;;1.00;80.62;100794.34;5071995;28;20266;-55
2022/12/21 00:07:33;;;;;;;42.90;27.77;;;;;;;1.01;80.29;100789.41;5071618;28;20633;-55
2022/12/21 00:10:00;;;;;;;40.60;27.00;;;;;;;1.02;79.96;100782.66;5071895;28;20665;-55
2022/12/21 00:12:27;;;;;;;42.80;28.43;;;;;;;1.03;79.84;100784.44;5072459;28;20219;-55
2022/12/21 00:14:54;;;;;;;39.17;26.60;;;;;;;1.04;79.86;100779.47;5075863;28;20237;-55
2022/12/21 00:17:20;;;;;;;36.37;26.37;;;;;;;1.01;79.35;100776.75;5076467;28;20539;-55
2022/12/21 00:19:48;;;;;;;38.37;24.83;;;;;;;0.87;79.04;100757.13;5075806;28;20210;-55
2022/12/21 00:22:16;;;;;;;36.97;25.47;;;;;;;0.94;79.47;100769.47;5075670;28;20188;-55
2022/12/21 00:24:43;;;;;;;38.90;26.37;;;;;;;0.93;79.61;100761.78;5075636;28;20187;-56
2022/12/21 00:27:10;;;;;;;35.93;24.17;;;;;;;0.93;79.03;100761.78;5065194;28;20220;-56
2022/12/21 00:29:36;;;;;;;38.83;25.50;;;;;;;0.96;79.55;100765.38;5072404;28;20588;-56
2022/12/21 00:32:03;;;;;;;33.37;24.20;;;;;;;1.00;79.81;100762.31;5075500;28;20188;-56
2022/12/21 00:34:30;;;;;;;39.45;29.85;;;;;;;1.01;79.08;100751.44;5074392;28;20430;-56
2022/12/21 00:36:58;;;;;;;35.30;25.23;;;;;;;1.09;78.60;100763.00;5075140;28;20187;-56
2022/12/21 00:39:25;;;;;;;36.03;24.90;;;;;;;1.17;78.64;100758.50;5075008;28;20215;-56
2022/12/21 00:41:52;;;;;;;35.40;24.10;;;;;;;1.11;78.57;100761.47;5075044;28;20190;-56
2022/12/21 00:44:19;;;;;;;36.57;22.77;;;;;;;1.09;78.33;100759.59;5075135;28;20188;-56
2022/12/21 00:46:47;;;;;;;28.83;21.17;;;;;;;1.09;78.66;100749.47;5075546;28;20188;-55
2022/12/21 00:49:13;;;;;;;28.90;21.70;;;;;;;1.11;78.71;100740.34;5075225;28;20184;-55
2022/12/21 00:51:40;;;;;;;34.47;25.55;;;;;;;1.12;78.75;100748.06;5073960;28;20566;-56
2022/12/21 00:54:09;;;;;;;38.50;24.00;;;;;;;1.14;79.06;100745.63;5075030;28;20215;-56
2022/12/21 00:56:36;;;;;;;29.70;22.23;;;;;;;1.04;79.08;100744.06;5075421;28;20245;-55
2022/12/21 00:59:03;;;;;;;33.40;22.40;;;;;;;0.98;79.81;100737.69;5075013;28;20186;-55
2022/12/21 01:01:33;;;;;;;30.97;22.13;;;;;;;1.00;80.05;100737.03;5074725;28;20187;-55
2022/12/21 01:04:00;;;;;;;33.33;23.60;;;;;;;1.05;80.03;100728.13;5074660;28;20184;-55
2022/12/21 01:06:29;;;;;;;32.63;22.30;;;;;;;1.02;79.35;100721.94;5075016;28;20188;-56
2022/12/21 01:08:57;;;;;;;30.50;21.83;;;;;;;0.99;80.02;100719.22;5074847;28;20266;-55
2022/12/21 01:11:27;;;;;;;34.53;23.33;;;;;;;0.98;79.91;100720.84;5075378;28;20184;-56
2022/12/21 01:13:54;;;;;;;33.87;23.87;;;;;;;0.86;79.91;100719.94;5074739;28;20242;-56
2022/12/21 01:16:23;;;;;;;34.63;24.30;;;;;;;0.88;80.42;100722.59;5074552;28;20226;-56
2022/12/21 01:18:50;;;;;;;34.87;24.03;;;;;;;0.80;79.92;100706.84;5074407;28;20206;-56
2022/12/21 01:21:18;;;;;;;34.87;23.90;;;;;;;0.83;79.99;100716.31;5074309;28;20190;-56
2022/12/21 01:23:45;;;;;;;31.50;23.73;;;;;;;0.82;80.07;100712.03;5073871;28;20204;-55
2022/12/21 01:26:12;;;;;;;34.93;23.63;;;;;;;0.84;80.41;100710.47;5074151;28;20684;-56
2022/12/21 01:28:41;;;;;;;36.63;23.73;;;;;;;0.85;80.28;100700.47;5074961;28;20219;-56
2022/12/21 01:31:08;;;;;;;36.37;24.47;;;;;;;0.91;80.10;100703.44;5074469;28;20195;-56
2022/12/21 01:33:35;;;;;;;34.63;23.57;;;;;;;0.90;80.21;100701.72;5074342;28;20212;-56
2022/12/21 01:36:06;;;;;;;34.97;22.87;;;;;;;0.95;79.65;100696.97;5074348;28;20546;-56
2022/12/21 01:38:33;;;;;;;34.50;23.47;;;;;;;0.96;79.08;100706.34;5074465;28;20248;-56
2022/12/21 01:41:00;;;;;;;39.93;23.30;;;;;;;0.87;79.51;100693.91;5074548;28;20187;-55
2022/12/21 01:43:48;;;;;;;32.00;23.60;;;;;;;0.73;79.96;100686.03;5073897;28;20650;-55
2022/12/21 01:46:22;;;;;;;30.67;21.03;;;;;;;0.79;79.65;100700.03;5074209;28;20191;-55
2022/12/21 01:48:55;;;;;;;36.23;23.23;;;;;;;0.78;80.27;100684.72;5073923;28;20190;-55
2022/12/21 01:51:23;;;;;;;34.53;23.10;;;;;;;0.77;80.02;100683.84;5074647;28;20560;-54
2022/12/21 01:53:55;;;;;;;33.63;22.87;;;;;;;0.74;80.72;100680.22;5074069;28;20222;-55
2022/12/21 01:56:28;;;;;;;33.57;22.63;;;;;;;0.79;81.23;100674.75;5074102;28;20195;-55
2022/12/21 01:58:58;;;;;;;34.10;23.27;;;;;;;0.79;81.04;100676.38;5073598;28;20176;-55
2022/12/21 02:01:26;;;;;;;31.13;21.17;;;;;;;0.83;80.36;100674.19;5073938;28;20187;-55
2022/12/21 02:03:54;;;;;;;36.20;23.83;;;;;;;0.72;80.94;100672.50;5073772;28;20191;-55
2022/12/21 02:06:27;;;;;;;32.73;23.17;;;;;;;0.69;80.59;100669.75;5073701;28;20195;-55
2022/12/21 02:08:54;;;;;;;32.70;22.43;;;;;;;0.70;80.69;100671.53;5073656;28;20183;-55
2022/12/21 02:11:22;;;;;;;32.20;22.20;;;;;;;0.72;80.80;100674.16;5073723;28;20195;-55
2022/12/21 02:13:48;;;;;;;33.87;22.87;;;;;;;0.64;80.95;100677.78;5073282;28;20644;-55
2022/12/21 02:16:31;;;;;;;35.30;23.30;;;;;;;0.58;80.88;100668.97;5074072;28;20183;-55
2022/12/21 02:19:22;;;;;;;33.73;24.83;;;;;;;0.55;81.32;100673.81;5069883;28;20192;-55
2022/12/21 02:21:53;;;;;;;32.33;23.70;;;;;;;0.50;82.15;100675.09;5071460;28;20196;-55
2022/12/21 02:24:42;;;;;;;34.60;24.20;;;;;;;0.47;82.31;100667.28;5074373;28;20268;-55
2022/12/21 02:27:25;;;;;;;37.47;24.57;;;;;;;0.49;81.88;100662.38;5073860;28;20227;-55
2022/12/21 02:30:05;;;;;;;37.00;23.40;;;;;;;0.49;82.38;100660.72;5073421;28;20188;-55
2022/12/21 02:32:49;;;;;;;37.80;21.90;;;;;;;0.52;82.80;100655.88;5073683;28;20187;-56
2022/12/21 02:35:28;;;;;;;32.83;22.30;;;;;;;0.50;82.88;100654.00;5072942;28;20530;-56
2022/12/21 02:38:08;;;;;;;32.57;22.20;;;;;;;0.44;82.32;100648.50;5073367;28;20180;-56
2022/12/21 02:40:42;;;;;;;28.70;20.27;;;;;;;0.45;82.54;100655.31;5073030;28;20719;-56
2022/12/21 02:46:06;;;;;;;30.60;19.90;;;;;;;0.41;82.62;100651.66;5073379;28;20538;-56
2022/12/21 02:48:40;;;;;;;25.30;17.73;;;;;;;0.42;82.23;100650.91;5073061;28;20589;-56
2022/12/21 02:51:12;;;;;;;26.97;17.77;;;;;;;0.38;82.05;100643.00;5072822;28;20252;-55
2022/12/21 02:53:40;;;;;;;24.60;18.37;;;;;;;0.35;82.53;100641.13;5072549;28;20674;-55
2022/12/21 02:56:14;;;;;;;25.60;17.63;;;;;;;0.33;82.54;100641.78;5072552;28;20183;-55
2022/12/21 02:58:41;;;;;;;29.47;20.07;;;;;;;0.34;82.58;100638.47;5073097;28;20209;-55
2022/12/21 03:01:18;;;;;;;34.73;21.23;;;;;;;0.33;82.68;100642.63;5071777;28;20187;-55
2022/12/21 03:04:09;;;;;;;30.93;21.17;;;;;;;0.34;82.63;100636.81;5072974;28;20186;-55
2022/12/21 03:06:53;;;;;;;27.60;20.30;;;;;;;0.36;82.93;100635.28;5072415;28;20658;-55
2022/12/21 03:09:32;;;;;;;36.20;21.33;;;;;;;0.41;82.64;100630.59;5072882;28;20187;-55
2022/12/21 03:12:04;;;;;;;31.90;21.43;;;;;;;0.28;82.53;100592.50;5072462;28;20724;-56
2022/12/21 03:14:45;;;;;;;26.50;19.30;;;;;;;0.37;82.31;100615.94;5071195;28;20215;-55
2022/12/21 03:17:19;;;;;;;27.07;20.10;;;;;;;0.36;82.19;100619.22;5072393;28;20194;-55
2022/12/21 03:19:53;;;;;;;32.87;19.50;;;;;;;0.39;82.03;100614.41;5072622;28;20202;-56
2022/12/21 03:22:29;;;;;;;28.07;19.23;;;;;;;0.35;82.44;100612.44;5072307;28;20187;-55
2022/12/21 03:25:01;;;;;;;29.37;20.43;;;;;;;0.41;82.06;100611.22;5073074;28;20195;-55
2022/12/21 03:27:33;;;;;;;31.92;22.33;;;;;;;0.48;81.99;100608.41;5071759;28;20504;-56
2022/12/21 03:30:05;;;;;;;28.43;20.33;;;;;;;0.50;82.01;100605.97;5071463;28;20198;-55
2022/12/21 03:32:36;;;;;;;25.53;18.93;;;;;;;0.48;82.20;100607.50;5072660;28;20271;-55
2022/12/21 03:35:10;;;;;;;28.03;18.57;;;;;;;0.48;82.01;100605.88;5071227;28;20211;-56
2022/12/21 03:37:40;;;;;;;30.17;18.87;;;;;;;0.37;82.31;100604.19;5051880;28;20734;-59
2022/12/21 03:40:13;;;;;;;26.90;18.43;;;;;;;0.33;82.14;100599.66;5059443;28;20192;-56
2022/12/21 03:42:44;;;;;;;27.47;19.57;;;;;;;0.31;82.80;100598.69;5052506;28;20184;-55
2022/12/21 03:45:17;;;;;;;27.60;19.10;;;;;;;0.33;82.04;100601.34;5052177;28;20188;-56
2022/12/21 03:47:49;;;;;;;28.20;19.57;;;;;;;0.35;82.34;100603.22;5060065;28;20202;-56
2022/12/21 03:50:20;;;;;;;28.70;18.87;;;;;;;0.25;82.48;100584.75;5072029;28;20188;-56
2022/12/21 03:52:51;;;;;;;27.73;17.53;;;;;;;0.34;82.48;100601.44;5072620;28;20180;-56
2022/12/21 03:55:22;;;;;;;30.27;18.20;;;;;;;0.35;82.56;100600.69;5072184;28;20183;-55
2022/12/21 03:57:50;;;;;;;21.40;16.53;;;;;;;0.41;81.95;100600.25;5072047;28;20638;-55
2022/12/21 04:00:17;;;;;;;26.43;17.70;;;;;;;0.42;81.69;100599.47;5071466;28;20191;-56
2022/12/21 04:02:55;;;;;;;24.93;16.73;;;;;;;0.30;82.29;100586.81;5051990;28;20242;-55
2022/12/21 04:05:30;;;;;;;22.67;15.17;;;;;;;0.32;81.99;100595.41;5051847;28;20195;-55
2022/12/21 04:07:57;;;;;;;22.37;15.60;;;;;;;0.36;82.60;100599.00;5052359;28;20187;-56
2022/12/21 04:10:27;;;;;;;24.17;15.67;;;;;;;0.39;81.63;100599.25;5052074;28;20184;-55
2022/12/21 04:12:52;;;;;;;24.47;15.63;;;;;;;0.34;82.37;100598.91;5051900;28;20184;-56
2022/12/21 04:15:21;;;;;;;23.57;14.73;;;;;;;0.35;82.51;100595.63;5051833;28;20222;-55
2022/12/21 04:17:50;;;;;;;21.33;14.80;;;;;;;0.42;81.39;100605.41;5051626;28;20188;-55
2022/12/21 04:20:18;;;;;;;24.93;16.00;;;;;;;0.43;81.71;100601.25;5051894;28;20223;-55
2022/12/21 04:28:20;;;;;;;22.07;15.10;;;;;;;0.36;81.80;100599.91;5072088;28;20218;-55
2022/12/21 04:30:47;;;;;;;27.53;16.90;;;;;;;0.43;81.12;100602.13;5070014;28;20264;-55
2022/12/21 04:33:17;;;;;;;23.50;16.77;;;;;;;0.37;81.79;100586.50;5071969;28;20196;-56
2022/12/21 04:38:26;;;;;;;24.93;17.10;;;;;;;0.38;81.52;100590.81;5071416;28;20188;-55
2022/12/21 04:40:53;;;;;;;28.07;18.13;;;;;;;0.38;81.89;100583.22;5071490;28;20523;-55
2022/12/21 04:43:21;;;;;;;28.50;18.07;;;;;;;0.36;81.53;100582.22;5071607;28;20245;-55
2022/12/21 04:45:48;;;;;;;30.27;18.47;;;;;;;0.38;81.43;100584.88;5071463;28;20653;-55
2022/12/21 04:48:15;;;;;;;26.90;18.07;;;;;;;0.33;81.63;100573.53;5071516;28;20180;-55
2022/12/21 04:50:42;;;;;;;24.93;17.20;;;;;;;0.11;81.96;100538.22;5071269;28;20245;-56
2022/12/21 04:53:09;;;;;;;27.67;19.13;;;;;;;0.35;81.89;100579.59;5071497;28;20240;-55
2022/12/21 04:55:37;;;;;;;30.07;19.17;;;;;;;0.30;81.53;100574.16;5072106;28;20245;-55
2022/12/21 04:58:04;;;;;;;25.70;19.10;;;;;;;0.21;81.03;100565.94;5071395;28;20198;-55
2022/12/21 05:00:30;;;;;;;28.60;19.67;;;;;;;0.10;81.39;100570.94;5073603;28;20187;-56
2022/12/21 05:02:57;;;;;;;32.77;20.37;;;;;;;0.19;81.02;100570.00;5074866;28;20618;-55
2022/12/21 05:05:24;;;;;;;29.60;18.70;;;;;;;0.16;81.24;100574.81;5074884;28;20195;-55
2022/12/21 05:07:52;;;;;;;25.37;17.63;;;;;;;0.09;81.44;100566.66;5073411;28;20585;-55
2022/12/21 05:10:19;;;;;;;25.30;17.97;;;;;;;0.09;82.21;100570.06;5061031;28;20270;-56
2022/12/21 05:12:47;;;;;;;29.30;18.80;;;;;;;-0.03;82.76;100556.53;5074707;28;20688;-55
2022/12/21 05:15:16;;;;;;;25.13;17.27;;;;;;;-0.03;82.52;100554.88;5074707;28;20565;-55
2022/12/21 05:17:43;;;;;;;30.30;19.57;;;;;;;-0.05;82.53;100560.56;5074808;28;20213;-55
2022/12/21 05:20:11;;;;;;;25.47;18.37;;;;;;;-0.02;83.65;100558.28;5074408;28;20186;-55
2022/12/21 05:22:38;;;;;;;30.20;19.63;;;;;;;-0.05;83.50;100558.06;5074562;28;20179;-55
2022/12/21 05:25:05;;;;;;;34.67;20.87;;;;;;;0.03;82.70;100549.41;5074487;28;20266;-55
2022/12/21 05:27:32;;;;;;;29.10;19.27;;;;;;;0.03;82.91;100553.59;5074661;28;20222;-55
2022/12/21 05:30:00;;;;;;;26.43;19.53;;;;;;;0.00;83.02;100549.19;5073536;28;20188;-56
2022/12/21 05:32:27;;;;;;;27.97;19.20;;;;;;;-0.02;82.83;100554.13;5073973;28;20273;-56
2022/12/21 05:34:54;;;;;;;29.47;20.33;;;;;;;-0.07;82.38;100532.69;5072843;28;20611;-55
2022/12/21 05:37:21;;;;;;;29.67;19.00;;;;;;;0.10;83.25;100551.63;5074780;28;20195;-55
2022/12/21 05:39:48;;;;;;;27.07;18.87;;;;;;;0.13;82.92;100544.28;5074153;28;20194;-55
2022/12/21 05:42:14;;;;;;;25.30;17.80;;;;;;;0.13;82.22;100544.28;5073311;28;20179;-55
2022/12/21 05:44:41;;;;;;;25.47;18.50;;;;;;;0.07;81.88;100543.81;5070540;28;20665;-55
2022/12/21 05:47:09;;;;;;;29.83;17.13;;;;;;;0.07;82.89;100541.28;5072503;28;20191;-56
2022/12/21 05:49:36;;;;;;;25.42;16.83;;;;;;;0.05;82.95;100552.94;5072985;28;20385;-56
2022/12/21 05:52:04;;;;;;;21.07;16.17;;;;;;;0.07;82.64;100545.47;5072885;28;20203;-56
2022/12/21 05:54:30;;;;;;;23.33;15.97;;;;;;;0.15;82.69;100550.31;5073623;28;20215;-55
2022/12/21 05:56:57;;;;;;;22.97;17.43;;;;;;;0.15;82.09;100542.72;5073514;28;20325;-55
2022/12/21 05:59:24;;;;;;;27.87;17.23;;;;;;;0.18;82.76;100542.97;5073752;28;20531;-55
2022/12/21 06:01:51;;;;;;;24.50;17.80;;;;;;;0.30;81.75;100545.50;5073525;28;20709;-55
2022/12/21 06:04:19;;;;;;;29.63;18.73;;;;;;;0.39;81.97;100542.00;5073713;28;20183;-55
2022/12/21 06:06:46;;;;;;;38.77;19.30;;;;;;;0.42;81.63;100536.28;5073581;28;20278;-56
2022/12/21 06:09:13;;;;;;;24.30;17.53;;;;;;;0.39;81.98;100536.94;5073656;28;20249;-56
2022/12/21 06:11:40;;;;;;;23.57;17.27;;;;;;;0.49;81.08;100529.28;5073298;28;20179;-56
2022/12/21 06:14:06;;;;;;;25.93;16.57;;;;;;;0.52;81.31;100529.47;5073161;28;20219;-56
2022/12/21 06:16:33;;;;;;;22.13;15.40;;;;;;;0.56;81.26;100531.47;5073395;28;20194;-55
2022/12/21 06:19:00;;;;;;;27.00;16.57;;;;;;;0.63;80.32;100534.44;5073078;28;20682;-55
2022/12/21 06:21:28;;;;;;;21.27;15.87;;;;;;;0.66;80.08;100532.97;5073037;28;20642;-55
2022/12/21 06:23:55;;;;;;;22.13;15.17;;;;;;;0.68;79.67;100535.63;5073033;28;20186;-55
2022/12/21 06:26:22;;;;;;;23.77;14.77;;;;;;;0.73;79.96;100541.88;5073417;28;20194;-55
2022/12/21 06:28:50;;;;;;;23.13;16.13;;;;;;;0.63;79.81;100504.09;5073234;28;20230;-55
2022/12/21 06:31:17;;;;;;;26.30;17.03;;;;;;;0.89;79.14;100547.25;5073026;28;20194;-55
2022/12/21 06:33:44;;;;;;;26.80;17.80;;;;;;;0.89;78.91;100535.50;5072653;28;20244;-55
2022/12/21 06:36:11;;;;;;;25.50;18.30;;;;;;;0.94;78.78;100534.16;5072684;28;20188;-55
2022/12/21 06:38:40;;;;;;;28.97;19.80;;;;;;;0.96;78.49;100530.09;5072246;28;20188;-55
2022/12/21 06:41:09;;;;;;;31.17;20.80;;;;;;;1.00;78.56;100534.59;5072742;28;20187;-55
2022/12/21 06:43:37;;;;;;;37.53;22.17;;;;;;;1.00;78.76;100536.25;5073296;28;20183;-56
2022/12/21 06:46:06;;;;;;;36.73;24.57;;;;;;;1.04;79.28;100530.66;5072630;28;20215;-56
2022/12/21 06:48:34;;;;;;;40.53;23.80;;;;;;;1.20;79.39;100525.88;5072557;28;20183;-56
2022/12/21 06:51:03;;;;;;;33.97;23.07;;;;;;;1.49;78.43;100521.16;5072604;28;20183;-55
2022/12/21 06:53:32;;;;;;;35.70;20.80;;;;;;;2.13;76.61;100492.50;5072838;28;20241;-55
2022/12/21 06:56:01;;;;;;;36.17;22.43;;;;;;;2.48;73.73;100515.94;5072648;28;20211;-56
2022/12/21 06:58:29;;;;;;;34.93;22.00;;;;;;;2.54;72.42;100512.91;5072465;28;20186;-55
2022/12/21 07:00:56;;;;;;;33.70;22.97;;;;;;;2.61;71.75;100512.53;5072280;28;20195;-56
2022/12/21 07:03:23;;;;;;;35.13;22.73;;;;;;;2.51;71.76;100515.25;5072755;28;20252;-55
2022/12/21 07:05:50;;;;;;;36.20;23.93;;;;;;;2.25;72.04;100511.06;5072313;28;20248;-55
2022/12/21 07:08:17;;;;;;;41.87;24.13;;;;;;;1.96;73.27;100505.72;5072467;28;20191;-55
2022/12/21 07:10:44;;;;;;;41.87;24.20;;;;;;;1.96;74.04;100510.78;5072375;28;20187;-55
2022/12/21 07:13:12;;;;;;;40.20;26.30;;;;;;;1.87;74.24;100505.97;5072266;28;20699;-55
2022/12/21 07:15:39;;;;;;;42.70;25.83;;;;;;;1.86;75.03;100508.44;5072334;28;20220;-55
2022/12/21 07:18:06;;;;;;;26.57;18.07;;;;;;;1.74;74.78;100508.47;5072655;28;20188;-55
2022/12/21 07:20:32;;;;;;;26.00;18.03;;;;;;;1.59;74.58;100503.25;5072301;28;20188;-55
2022/12/21 07:22:59;;;;;;;30.70;19.70;;;;;;;1.59;75.27;100502.41;5071658;28;20649;-55
2022/12/21 07:25:26;;;;;;;27.43;18.20;;;;;;;1.52;75.56;100506.16;5072220;28;20194;-55
2022/12/21 07:27:53;;;;;;;28.03;18.10;;;;;;;1.48;76.06;100499.16;5070032;28;20272;-56
2022/12/21 07:30:21;;;;;;;22.83;16.77;;;;;;;1.44;76.10;100492.13;5061214;28;20631;-55
2022/12/21 07:32:48;;;;;;;24.63;16.30;;;;;;;1.38;76.76;100494.22;5051629;28;20184;-56
2022/12/21 07:35:16;;;;;;;22.70;15.20;;;;;;;1.29;76.46;100485.13;5051958;28;20212;-56
2022/12/21 07:37:43;;;;;;;21.67;15.00;;;;;;;1.34;77.05;100492.28;5051581;28;20238;-55
2022/12/21 07:40:11;;;;;;;23.60;15.73;;;;;;;1.46;77.18;100493.09;5051603;28;20184;-56
2022/12/21 07:42:38;;;;;;;22.33;16.03;;;;;;;1.48;76.70;100485.59;5051770;28;20188;-56
2022/12/21 07:45:06;;;;;;;24.57;16.70;;;;;;;1.62;76.27;100485.75;5051711;28;20195;-55
2022/12/21 07:47:34;;;;;;;21.90;15.73;;;;;;;1.67;76.24;100483.53;5051989;28;20184;-56
2022/12/21 07:50:01;;;;;;;30.33;17.37;;;;;;;1.72;76.31;100490.66;5051677;28;20184;-56
2022/12/21 07:52:27;;;;;;;23.40;17.53;;;;;;;1.79;75.82;100492.81;5055763;28;20207;-55
2022/12/21 07:54:54;;;;;;;25.40;18.50;;;;;;;1.93;75.96;100486.13;5069324;28;20216;-55
2022/12/21 07:57:21;;;;;;;27.20;18.80;;;;;;;1.92;75.62;100491.09;5061977;28;20196;-55
2022/12/21 07:59:48;;;;;;;24.63;17.83;;;;;;;1.88;75.81;100496.72;5051832;28;20650;-55
2022/12/21 08:02:15;;;;;;;25.50;18.70;;;;;;;1.88;75.23;100466.31;5051810;28;20181;-55
2022/12/21 08:04:43;;;;;;;25.10;17.97;;;;;;;2.10;74.56;100493.19;5051445;28;20199;-56
2022/12/21 08:07:10;;;;;;;28.73;19.27;;;;;;;2.16;74.48;100485.97;5054463;28;20183;-56
2022/12/21 08:09:37;;;;;;;26.27;18.77;;;;;;;2.23;74.40;100488.13;5062866;28;20191;-55
2022/12/21 08:12:05;;;;;;;28.20;18.47;;;;;;;2.30;74.07;100489.41;5071433;28;20646;-55
2022/12/21 08:14:32;;;;;;;23.90;17.07;;;;;;;2.35;73.68;100483.84;5065139;28;20700;-56
2022/12/21 08:16:59;;;;;;;26.00;17.47;;;;;;;2.43;73.76;100488.53;5054353;28;20197;-56
2022/12/21 08:19:26;;;;;;;21.97;15.17;;;;;;;2.54;73.51;100483.34;5051448;28;20184;-56
2022/12/21 08:21:54;;;;;;;26.23;15.80;;;;;;;2.57;73.35;100491.16;5051962;28;21658;-57
2022/12/21 08:24:21;;;;;;;28.80;17.97;;;;;;;2.64;72.47;100487.34;5068631;28;20220;-56
2022/12/21 08:26:48;;;;;;;24.03;17.43;;;;;;;2.78;72.72;100495.03;5065915;28;20212;-57
2022/12/21 08:29:15;;;;;;;25.23;17.27;;;;;;;2.94;72.12;100484.19;5071618;28;20192;-56
2022/12/21 08:31:42;;;;;;;20.73;15.90;;;;;;;3.02;70.70;100482.13;5071477;28;20187;-56
2022/12/21 08:34:08;;;;;;;25.10;16.13;;;;;;;3.05;70.45;100482.31;5073196;28;20249;-56
2022/12/21 08:36:35;;;;;;;24.50;16.83;;;;;;;3.14;70.42;100485.41;5075709;28;20211;-55
2022/12/21 08:39:03;;;;;;;24.23;16.97;;;;;;;3.26;69.96;100483.63;5075413;28;20195;-56
2022/12/21 08:41:30;;;;;;;24.63;16.80;;;;;;;3.31;69.00;100485.66;5075157;28;20188;-55
2022/12/21 08:43:57;;;;;;;23.03;16.37;;;;;;;3.25;68.48;100476.78;5075074;28;20206;-55
2022/12/21 08:46:24;;;;;;;22.43;15.80;;;;;;;3.31;68.18;100467.88;5074024;28;20195;-59
2022/12/21 08:48:51;;;;;;;19.47;15.07;;;;;;;3.29;67.77;100463.50;5074611;28;20772;-56
2022/12/21 08:51:17;;;;;;;20.07;15.43;;;;;;;3.17;67.46;100450.94;5072158;28;20250;-57
2022/12/21 08:53:44;;;;;;;23.00;15.20;;;;;;;3.31;67.83;100451.75;5071886;28;20257;-57
2022/12/21 08:56:12;;;;;;;21.80;16.37;;;;;;;3.33;66.83;100451.06;5074098;28;20212;-57
2022/12/21 08:58:39;;;;;;;21.17;15.50;;;;;;;3.45;66.85;100439.09;5074554;28;20592;-56
2022/12/21 09:01:06;;;;;;;24.67;16.83;;;;;;;3.63;66.25;100425.72;5074490;28;20183;-57
2022/12/21 09:03:33;;;;;;;19.17;16.13;;;;;;;3.69;65.41;100416.78;5074535;28;20184;-57
2022/12/21 09:06:02;;;;;;;23.53;16.73;;;;;;;3.86;65.05;100417.75;5067943;28;20200;-57
2022/12/21 09:08:29;;;;;;;24.97;17.57;;;;;;;3.90;64.65;100418.00;5063196;28;20193;-57
2022/12/21 09:11:01;;;;;;;24.30;16.87;;;;;;;4.02;64.28;100411.09;5074154;28;20199;-57
2022/12/21 09:13:29;;;;;;;23.73;15.93;;;;;;;4.10;63.27;100407.31;5075081;28;20568;-57
2022/12/21 09:15:56;;;;;;;22.80;15.37;;;;;;;4.03;62.64;100401.81;5074372;28;20211;-57
2022/12/21 09:18:23;;;;;;;20.00;14.40;;;;;;;4.11;62.65;100396.34;5074370;28;20191;-56
2022/12/21 09:20:50;;;;;;;25.00;17.23;;;;;;;4.10;62.33;100386.09;5074406;28;20193;-56
2022/12/21 09:23:16;;;;;;;26.80;17.70;;;;;;;4.18;62.66;100392.47;5073839;28;20180;-57
2022/12/21 09:25:43;;;;;;;30.30;19.17;;;;;;;4.25;62.92;100391.16;5074100;28;20188;-56
2022/12/21 09:28:10;;;;;;;25.87;18.57;;;;;;;4.16;62.70;100350.84;5074647;28;20555;-56
2022/12/21 09:30:38;;;;;;;24.67;16.13;;;;;;;4.29;61.74;100376.13;5073821;28;20188;-56
2022/12/21 09:33:05;;;;;;;20.40;16.23;;;;;;;4.39;60.95;100380.97;5074542;28;20184;-57
2022/12/21 09:35:35;;;;;;;26.67;16.83;;;;;;;4.39;61.04;100383.50;5073966;28;20215;-57
2022/12/21 09:38:03;;;;;;;31.03;18.03;;;;;;;4.37;61.29;100356.22;5073870;28;20198;-56
2022/12/21 09:40:31;;;;;;;24.73;18.97;;;;;;;4.58;61.29;100367.56;5073935;28;20184;-57
2022/12/21 09:43:07;;;;;;;25.70;18.27;;;;;;;4.72;60.20;100366.63;5073582;28;20242;-56
2022/12/21 09:45:47;;;;;;;27.17;18.13;;;;;;;4.84;60.47;100357.06;5073128;28;20276;-57
2022/12/21 09:48:18;;;;;;;23.20;17.07;;;;;;;4.86;60.55;100347.88;5074232;28;20258;-56
2022/12/21 09:50:50;;;;;;;23.93;15.73;;;;;;;4.90;59.59;100352.31;5074060;28;20559;-56
2022/12/21 09:53:21;;;;;;;27.37;18.67;;;;;;;4.98;60.03;100345.06;5073547;28;20195;-57
2022/12/21 09:55:53;;;;;;;27.03;16.77;;;;;;;5.06;59.61;100339.56;5073331;28;20614;-57
2022/12/21 09:58:26;;;;;;;35.67;19.37;;;;;;;5.10;60.30;100333.84;5073247;28;20196;-57
2022/12/21 10:01:03;;;;;;;26.30;17.27;;;;;;;4.97;59.57;100315.31;5076566;28;20195;-56
2022/12/21 10:03:47;;;;;;;20.10;15.50;;;;;;;5.11;59.59;100339.81;5074831;28;20697;-57
2022/12/21 10:06:28;;;;;;;21.80;16.50;;;;;;;5.09;59.38;100333.75;5073097;28;20630;-57
2022/12/21 10:09:28;;;;;;;26.43;17.73;;;;;;;5.10;59.64;100336.41;5073639;28;20315;-57
2022/12/21 10:12:09;;;;;;;18.97;15.57;;;;;;;5.14;59.99;100330.63;5066646;28;20196;-57
2022/12/21 10:14:50;;;;;;;19.17;14.47;;;;;;;5.17;59.39;100327.38;5073654;28;20188;-57
2022/12/21 10:17:33;;;;;;;19.93;14.20;;;;;;;5.20;59.00;100325.88;5053619;28;20184;-57
2022/12/21 10:20:10;;;;;;;22.97;14.43;;;;;;;5.00;57.58;100288.31;5069038;28;20192;-57
2022/12/21 10:22:40;;;;;;;18.77;14.10;;;;;;;5.09;58.78;100305.72;5073169;28;20239;-57
2022/12/21 10:25:18;;;;;;;24.20;15.00;;;;;;;5.08;58.56;100315.03;5073883;28;20180;-57
2022/12/21 10:27:49;;;;;;;25.13;16.67;;;;;;;5.05;59.86;100302.19;5073363;28;20695;-57
2022/12/21 10:30:17;;;;;;;21.30;17.20;;;;;;;5.18;59.48;100304.53;5073227;28;20258;-58
2022/12/21 10:32:48;;;;;;;25.60;17.73;;;;;;;5.20;60.38;100295.28;5072789;28;20544;-57
2022/12/21 10:35:18;;;;;;;25.23;18.10;;;;;;;5.24;60.69;100292.13;5066464;28;20224;-58
2022/12/21 10:37:48;;;;;;;23.90;17.60;;;;;;;5.27;60.55;100292.25;5059891;28;20195;-58
2022/12/21 10:40:15;;;;;;;19.30;15.77;;;;;;;5.34;60.32;100278.16;5063699;28;20641;-57
2022/12/21 10:42:46;;;;;;;24.97;16.77;;;;;;;5.42;59.55;100283.59;5072593;28;20184;-57
2022/12/21 10:45:15;;;;;;;26.53;17.67;;;;;;;5.49;60.46;100286.56;5072482;28;20531;-57
2022/12/21 10:47:44;;;;;;;29.67;17.60;;;;;;;5.15;59.48;100243.25;5072028;28;20181;-57
2022/12/21 10:50:16;;;;;;;20.70;15.63;;;;;;;5.18;59.82;100265.44;5072502;28;20189;-57
2022/12/21 10:52:44;;;;;;;21.83;16.03;;;;;;;5.34;60.05;100270.50;5072795;28;20255;-58
2022/12/21 10:55:33;;;;;;;22.27;15.47;;;;;;;5.35;59.33;100257.84;5072256;28;20252;-57
2022/12/21 10:58:16;;;;;;;24.17;16.33;;;;;;;5.31;59.93;100261.03;5071548;28;20222;-57
2022/12/21 11:00:51;;;;;;;21.90;13.83;;;;;;;5.48;60.10;100248.22;5072331;28;20245;-58
2022/12/21 11:03:25;;;;;;;22.10;15.13;;;;;;;5.43;59.40;100231.84;5072860;28;20179;-58
2022/12/21 11:05:53;;;;;;;22.23;15.33;;;;;;;5.48;60.37;100238.91;5072773;28;20199;-57
2022/12/21 11:08:24;;;;;;;19.37;13.50;;;;;;;5.44;59.89;100218.31;5072187;28;20190;-57
2022/12/21 11:10:53;;;;;;;15.67;12.53;;;;;;;5.60;59.72;100246.28;5072210;28;20245;-57
2022/12/21 11:13:22;;;;;;;19.60;14.43;;;;;;;5.62;59.94;100227.72;5072310;28;20195;-57
2022/12/21 11:15:55;;;;;;;19.87;15.63;;;;;;;5.76;59.86;100226.69;5072864;28;20257;-56
2022/12/21 11:18:31;;;;;;;19.30;14.60;;;;;;;5.69;59.62;100195.72;5072158;28;20184;-58
2022/12/21 11:21:00;;;;;;;21.57;15.23;;;;;;;5.93;58.67;100224.97;5070219;28;20196;-58
2022/12/21 11:23:27;;;;;;;20.73;15.67;;;;;;;6.06;58.69;100217.06;5067253;28;20734;-57
2022/12/21 11:25:55;;;;;;;19.60;14.10;;;;;;;6.16;57.41;100219.22;5061852;28;20585;-57
2022/12/21 11:28:24;;;;;;;20.63;14.53;;;;;;;6.18;57.17;100207.38;5052918;28;20278;-57
2022/12/21 11:30:54;;;;;;;24.07;16.07;;;;;;;6.28;57.31;100206.13;5069437;28;20194;-57
2022/12/21 11:33:22;;;;;;;23.77;14.63;;;;;;;6.33;57.34;100200.44;5071025;28;20184;-57
2022/12/21 11:36:13;;;;;;;21.80;13.87;;;;;;;6.40;56.65;100206.69;5070288;28;20632;-57
2022/12/21 11:38:41;;;;;;;17.17;13.13;;;;;;;6.28;56.29;100191.69;5070240;28;20184;-57